Neptune Avra — 9HKH6 — position and weather

sailwx.info

Track history (hours):
 
Tides and Currents Weather Stations Pressure Air Temp Water Temp Dewpoint Dewpoint Depression Visibility Wind Speed Wind Dir Waves Ship Positions

Neptune Avra

Last reported at 2016-May-01 07:10 UTC. Time now 2016-May-02 19:20 UTC.
Position N 39°38' W 000°08'.

Length 155 m; draft 5.8 m.

Type: Cargo ship. MMSI: 248598000.

Date/timePositionNaut miles runAvg speedWind from/ knotsBaromVisibWave heightAir tempDewpointWater temp
2016-May-01 07:10N 39°38' W 000°08'8915.7
2016-May-01 01:30N 40°34' E 001°21'1515.7
2016-May-01 00:33N 40°44' E 001°36'1615.9
2016-Apr-30 23:33N 40°54' E 001°51'1615.5
2016-Apr-30 22:32N 41°04' E 002°07'177 5.1
2016-Apr-29 11:33N 43°13' E 004°52'9 8.8
2016-Apr-29 10:33N 43°20' E 004°58'7 6.5
2016-Apr-29 09:32N 43°24' E 004°51'0 0.0
2016-Apr-29 08:25N 43°24' E 004°51'0 0.0
2016-Apr-29 07:16N 43°24' E 004°51'0 0.0
2016-Apr-29 06:31N 43°24' E 004°51'0 0.0
2016-Apr-29 05:31N 43°24' E 004°51'0 0.0
2016-Apr-29 04:31N 43°24' E 004°51'0 0.0
2016-Apr-29 03:31N 43°24' E 004°51'0 0.0
2016-Apr-29 02:31N 43°24' E 004°51'0 0.0
2016-Apr-29 01:31N 43°24' E 004°51'0 0.0
2016-Apr-29 00:31N 43°24' E 004°51'0 0.0
2016-Apr-28 23:31N 43°24' E 004°51'0 0.0
2016-Apr-28 22:31N 43°24' E 004°51'0 0.0
2016-Apr-28 21:31N 43°24' E 004°51'0 0.0
2016-Apr-28 20:31N 43°24' E 004°51'0 0.0
2016-Apr-28 19:31N 43°24' E 004°51'0 0.0
2016-Apr-28 18:31N 43°24' E 004°51'0 0.0
2016-Apr-28 17:31N 43°24' E 004°51'0 0.0
2016-Apr-28 16:31N 43°24' E 004°51'0 0.0
2016-Apr-28 15:33N 43°24' E 004°51'0 0.0
2016-Apr-28 14:33N 43°24' E 004°51'2 2.2
2016-Apr-28 13:33N 43°24' E 004°54'9 8.8
2016-Apr-28 12:33N 43°16' E 005°00'23312.9
2016-Apr-27 18:32N 40°41' E 001°07'2215.1
2016-Apr-27 17:05N 40°24' E 000°49'82 3.1
2016-Apr-26 14:32N 39°04' E 000°24'3014.8
2016-Apr-26 12:32N 38°35' E 000°21'1515.5
2016-Apr-26 11:33N 38°22' E 000°10'2115.9
2016-Apr-26 10:15N 38°05' W 000°05'2815.7
2016-Apr-26 08:29N 37°41' W 000°24'1415.2
2016-Apr-26 07:33N 37°31' W 000°35'1515.0
2016-Apr-26 06:33N 37°20' W 000°49'1514.9
2016-Apr-26 05:31N 37°10' W 001°04'209 7.4
2016-Apr-25 01:12N 36°04' W 005°10'1117.7
2016-Apr-25 00:34N 35°58' W 005°23'5 0.4
2016-Apr-24 09:26N 35°58' W 005°29'1011.7
2016-Apr-24 08:33N 36°01' W 005°17'21715.5
2016-Apr-23 18:33N 37°14' W 001°02'1716.9
2016-Apr-23 17:33N 37°26' W 000°47'1616.5
2016-Apr-23 16:33N 37°37' W 000°32'1615.8
2016-Apr-23 15:34N 37°50' W 000°21'1615.9
2016-Apr-23 14:33N 38°03' W 000°10'1615.8
2016-Apr-23 13:33N 38°17' E 000°01'11716.8
2016-Apr-23 06:33N 39°53' E 001°28'1717.1
2016-Apr-23 05:33N 40°07' E 001°41'1717.2
2016-Apr-23 04:34N 40°21' E 001°54'1717.1
2016-Apr-23 03:33N 40°35' E 002°07'1717.4
2016-Apr-23 02:33N 40°49' E 002°20'1717.1
2016-Apr-23 01:33N 41°03' E 002°33'1817.7
2016-Apr-23 00:33N 41°17' E 002°47'17 0.7
2016-Apr-21 23:09N 41°22' E 002°25'915.2
2016-Apr-21 22:33N 41°17' E 002°15'1515.2
2016-Apr-21 21:33N 41°09' E 001°58'1515.3
2016-Apr-21 20:33N 41°01' E 001°40'1515.3
2016-Apr-21 19:33N 40°53' E 001°23'1515.3
2016-Apr-21 18:33N 40°43' E 001°08'1615.5
2016-Apr-21 17:33N 40°31' E 000°55'1515.5
2016-Apr-21 16:33N 40°19' E 000°42'1515.3
2016-Apr-21 15:33N 40°07' E 000°29'4314.4
2016-Apr-21 12:33N 39°37' W 000°11'  
Track history (hours):
 
Tides and Currents Weather Stations Pressure Air Temp Water Temp Dewpoint Dewpoint Depression Visibility Wind Speed Wind Dir Waves Ship Positions

Neptune Avra

Last reported at 2016-May-01 07:10 UTC. Time now 2016-May-02 19:20 UTC.
Position N 39°38' W 000°08'.

Length 155 m; draft 5.8 m.

Type: Cargo ship. MMSI: 248598000.

Date/timePositionNaut miles runAvg speedWind from/ knotsBaromVisibWave heightAir tempDewpointWater temp
2016-May-01 07:10N 39°38' W 000°08'8915.7
2016-May-01 01:30N 40°34' E 001°21'1515.7
2016-May-01 00:33N 40°44' E 001°36'1615.9
2016-Apr-30 23:33N 40°54' E 001°51'1615.5
2016-Apr-30 22:32N 41°04' E 002°07'177 5.1
2016-Apr-29 11:33N 43°13' E 004°52'9 8.8
2016-Apr-29 10:33N 43°20' E 004°58'7 6.5
2016-Apr-29 09:32N 43°24' E 004°51'0 0.0
2016-Apr-29 08:25N 43°24' E 004°51'0 0.0
2016-Apr-29 07:16N 43°24' E 004°51'0 0.0
2016-Apr-29 06:31N 43°24' E 004°51'0 0.0
2016-Apr-29 05:31N 43°24' E 004°51'0 0.0
2016-Apr-29 04:31N 43°24' E 004°51'0 0.0
2016-Apr-29 03:31N 43°24' E 004°51'0 0.0
2016-Apr-29 02:31N 43°24' E 004°51'0 0.0
2016-Apr-29 01:31N 43°24' E 004°51'0 0.0
2016-Apr-29 00:31N 43°24' E 004°51'0 0.0
2016-Apr-28 23:31N 43°24' E 004°51'0 0.0
2016-Apr-28 22:31N 43°24' E 004°51'0 0.0
2016-Apr-28 21:31N 43°24' E 004°51'0 0.0
2016-Apr-28 20:31N 43°24' E 004°51'0 0.0
2016-Apr-28 19:31N 43°24' E 004°51'0 0.0
2016-Apr-28 18:31N 43°24' E 004°51'0 0.0
2016-Apr-28 17:31N 43°24' E 004°51'0 0.0
2016-Apr-28 16:31N 43°24' E 004°51'0 0.0
2016-Apr-28 15:33N 43°24' E 004°51'0 0.0
2016-Apr-28 14:33N 43°24' E 004°51'2 2.2
2016-Apr-28 13:33N 43°24' E 004°54'9 8.8
2016-Apr-28 12:33N 43°16' E 005°00'23312.9
2016-Apr-27 18:32N 40°41' E 001°07'2215.1
2016-Apr-27 17:05N 40°24' E 000°49'82 3.1
2016-Apr-26 14:32N 39°04' E 000°24'3014.8
2016-Apr-26 12:32N 38°35' E 000°21'1515.5
2016-Apr-26 11:33N 38°22' E 000°10'2115.9
2016-Apr-26 10:15N 38°05' W 000°05'2815.7
2016-Apr-26 08:29N 37°41' W 000°24'1415.2
2016-Apr-26 07:33N 37°31' W 000°35'1515.0
2016-Apr-26 06:33N 37°20' W 000°49'1514.9
2016-Apr-26 05:31N 37°10' W 001°04'209 7.4
2016-Apr-25 01:12N 36°04' W 005°10'1117.7
2016-Apr-25 00:34N 35°58' W 005°23'5 0.4
2016-Apr-24 09:26N 35°58' W 005°29'1011.7
2016-Apr-24 08:33N 36°01' W 005°17'21715.5
2016-Apr-23 18:33N 37°14' W 001°02'1716.9
2016-Apr-23 17:33N 37°26' W 000°47'1616.5
2016-Apr-23 16:33N 37°37' W 000°32'1615.8
2016-Apr-23 15:34N 37°50' W 000°21'1615.9
2016-Apr-23 14:33N 38°03' W 000°10'1615.8
2016-Apr-23 13:33N 38°17' E 000°01'11716.8
2016-Apr-23 06:33N 39°53' E 001°28'1717.1
2016-Apr-23 05:33N 40°07' E 001°41'1717.2
2016-Apr-23 04:34N 40°21' E 001°54'1717.1
2016-Apr-23 03:33N 40°35' E 002°07'1717.4
2016-Apr-23 02:33N 40°49' E 002°20'1717.1
2016-Apr-23 01:33N 41°03' E 002°33'1817.7
2016-Apr-23 00:33N 41°17' E 002°47'17 0.7
2016-Apr-21 23:09N 41°22' E 002°25'915.2
2016-Apr-21 22:33N 41°17' E 002°15'1515.2
2016-Apr-21 21:33N 41°09' E 001°58'1515.3
2016-Apr-21 20:33N 41°01' E 001°40'1515.3
2016-Apr-21 19:33N 40°53' E 001°23'1515.3
2016-Apr-21 18:33N 40°43' E 001°08'1615.5
2016-Apr-21 17:33N 40°31' E 000°55'1515.5
2016-Apr-21 16:33N 40°19' E 000°42'1515.3
2016-Apr-21 15:33N 40°07' E 000°29'4314.4
2016-Apr-21 12:33N 39°37' W 000°11'  

Dump ship's entire track history